Time;durP1;ratioP1;P1;durP2;ratioP2;P2;SDS_P1;SDS_P2;PMS_P1;PMS_P2;Temp;Humidity;BMP_temperature;BMP_pressure;BME280_temperature;BME280_humidity;BME280_pressure;Samples;Min_cycle;Max_cycle;Signal;HPM_P1;HPM_P2
2022/12/09 00:01:16;;;;;;;27.08;11.50;;;;;;;-142.75;100.00;77938.63;4939136;28;20124;-65
2022/12/09 00:03:42;;;;;;;25.53;10.10;;;;;;;-142.75;100.00;77932.72;4935234;28;20658;-66
2022/12/09 00:06:29;;;;;;;25.42;10.68;;;;;;;-142.75;100.00;77924.84;4932468;28;20026;-65
2022/12/09 00:08:56;;;;;;;25.35;10.80;;;;;;;-142.75;100.00;77932.72;4935197;28;20065;-65
2022/12/09 00:11:22;;;;;;;22.50;9.93;;;;;;;-142.75;100.00;77930.75;4931028;28;20040;-65
2022/12/09 00:13:50;;;;;;;;;;;;;;;-142.75;100.00;77936.66;4938775;28;20030;-65
2022/12/09 00:16:17;;;;;;;20.53;9.57;;;;;;;-142.75;100.00;77940.59;4936893;28;19940;-65
2022/12/09 00:18:42;;;;;;;;;;;;;;;-142.75;100.00;77938.63;4932749;28;20042;-66
2022/12/09 00:21:13;;;;;;;20.03;8.93;;;;;;;-142.75;100.00;77946.50;4936574;28;20230;-65
2022/12/09 00:23:39;;;;;;;22.23;10.07;;;;;;;-142.75;100.00;77932.72;4934853;28;20840;-64
2022/12/09 00:26:05;;;;;;;22.77;9.80;;;;;;;-142.75;100.00;77934.69;4940104;28;20030;-66
2022/12/09 00:28:30;;;;;;;21.85;10.15;;;;;;;-142.75;100.00;77926.81;4923185;28;20022;-65
2022/12/09 00:31:00;;;;;;;20.48;8.80;;;;;;;-142.75;100.00;77911.06;4956532;28;20304;-65
2022/12/09 00:33:28;;;;;;;23.83;9.87;;;;;;;-142.75;100.00;77924.84;4933468;28;20018;-65
2022/12/09 00:35:53;;;;;;;21.20;9.73;;;;;;;-142.75;100.00;77936.66;4930829;28;20058;-66
2022/12/09 00:38:19;;;;;;;28.95;9.30;;;;;;;-142.75;100.00;77952.41;4941727;28;20323;-65
2022/12/09 00:40:44;;;;;;;22.48;11.38;;;;;;;-142.75;100.00;77970.13;4941301;28;20382;-65
2022/12/09 00:43:10;;;;;;;21.23;9.65;;;;;;;-142.75;100.00;77964.22;4935454;28;20305;-65
2022/12/09 00:45:35;;;;;;;26.02;9.88;;;;;;;-142.75;100.00;77968.16;4926376;28;20325;-65
2022/12/09 00:48:01;;;;;;;22.70;10.57;;;;;;;-142.75;100.00;77960.28;4928961;28;20431;-65
2022/12/09 00:50:26;;;;;;;33.17;10.27;;;;;;;-142.75;100.00;77956.34;4917245;28;20643;-65
2022/12/09 00:52:52;;;;;;;28.58;10.38;;;;;;;-142.75;100.00;77960.28;4933566;28;20374;-65
2022/12/09 00:55:17;;;;;;;27.25;10.95;;;;;;;-142.75;100.00;77948.47;4943798;28;20343;-65
2022/12/09 00:57:43;;;;;;;25.05;11.60;;;;;;;-142.75;100.00;77936.66;4954436;28;20022;-65
2022/12/09 01:00:09;;;;;;;22.00;11.13;;;;;;;-142.75;100.00;77942.56;4939213;28;20026;-65
2022/12/09 01:02:35;;;;;;;;;;;;;;;-142.75;100.00;77956.34;4933521;28;20104;-66
2022/12/09 01:05:01;;;;;;;25.13;11.00;;;;;;;-142.75;100.00;77944.53;4941311;28;19913;-65
2022/12/09 01:07:27;;;;;;;27.20;11.38;;;;;;;-142.75;100.00;77956.34;4925969;28;20318;-65
2022/12/09 01:09:52;;;;;;;23.08;11.68;;;;;;;-142.75;100.00;77970.13;4935101;28;20360;-65
2022/12/09 01:12:18;;;;;;;22.90;10.45;;;;;;;-142.75;100.00;77966.19;4933167;28;20065;-65
2022/12/09 01:14:43;;;;;;;28.42;11.07;;;;;;;-142.75;100.00;78015.41;4939853;28;20383;-65
2022/12/09 01:17:09;;;;;;;28.80;12.52;;;;;;;-142.75;100.00;77999.66;4934721;28;20373;-66
2022/12/09 01:19:34;;;;;;;26.88;11.18;;;;;;;-142.75;100.00;77995.72;4943447;28;20387;-65
2022/12/09 01:22:00;;;;;;;24.75;11.80;;;;;;;-142.75;100.00;77976.03;4945443;28;20523;-65
2022/12/09 01:24:25;;;;;;;32.28;13.18;;;;;;;-142.75;100.00;77987.84;4932507;28;20321;-65
2022/12/09 01:26:51;;;;;;;27.08;12.32;;;;;;;-142.75;100.00;77976.03;4934519;28;20133;-65
2022/12/09 01:29:16;;;;;;;30.35;13.40;;;;;;;-142.75;100.00;77964.22;4938357;28;20329;-65
2022/12/09 01:31:42;;;;;;;28.67;13.50;;;;;;;-142.75;100.00;77970.13;4929816;28;20040;-65
2022/12/09 01:34:08;;;;;;;26.83;12.73;;;;;;;-142.75;100.00;77976.03;4934130;28;20041;-65
2022/12/09 01:36:33;;;;;;;28.58;12.63;;;;;;;-142.75;100.00;77978.00;4937850;28;20033;-65
2022/12/09 01:38:59;;;;;;;27.35;11.40;;;;;;;-142.75;100.00;77964.22;4953951;28;20573;-66
2022/12/09 01:41:25;;;;;;;31.00;13.85;;;;;;;-142.75;100.00;77958.31;4938048;28;20391;-65
2022/12/09 01:44:11;;;;;;;28.98;11.85;;;;;;;-142.75;100.00;77964.22;4933633;28;20192;-65
2022/12/09 01:46:36;;;;;;;29.80;12.63;;;;;;;-142.75;100.00;77960.28;4935394;28;20019;-65
2022/12/09 01:49:03;;;;;;;33.10;13.95;;;;;;;-142.75;100.00;77960.28;4927741;28;20305;-65
2022/12/09 01:51:28;;;;;;;29.47;11.87;;;;;;;-142.75;100.00;77972.09;4932142;28;20026;-65
2022/12/09 01:53:55;;;;;;;31.63;12.48;;;;;;;-142.75;100.00;77976.03;4936318;28;20487;-66
2022/12/09 01:56:26;;;;;;;25.67;12.30;;;;;;;-142.75;100.00;77962.25;4935752;28;20088;-65
2022/12/09 01:58:53;;;;;;;29.00;12.73;;;;;;;-142.75;100.00;77940.59;4930343;28;20026;-65
2022/12/09 02:01:20;;;;;;;30.70;12.07;;;;;;;-142.75;100.00;77954.38;4939473;28;20022;-65
2022/12/09 02:03:45;;;;;;;29.40;12.90;;;;;;;-142.75;100.00;77944.53;4936225;28;20029;-65
2022/12/09 02:06:11;;;;;;;24.98;10.82;;;;;;;-142.75;100.00;77956.34;4927403;28;20380;-65
2022/12/09 02:08:36;;;;;;;26.88;11.68;;;;;;;-142.75;100.00;77976.03;4934785;28;20420;-69
2022/12/09 02:11:24;;;;;;;24.10;10.98;;;;;;;-142.75;100.00;77962.25;4926341;28;20034;-69
2022/12/09 02:13:49;;;;;;;;;;;;;;;-142.75;100.00;77956.34;4934488;28;20026;-70
2022/12/09 02:16:19;;;;;;;23.83;10.47;;;;;;;-142.75;100.00;77958.31;4936691;28;20224;-70
2022/12/09 02:19:08;;;;;;;28.57;10.87;;;;;;;-142.75;100.00;77948.47;4936256;28;20108;-70
2022/12/09 02:21:58;;;;;;;29.77;11.90;;;;;;;-142.75;100.00;77972.09;4938008;28;20052;-70
2022/12/09 02:24:36;;;;;;;32.67;12.17;;;;;;;-142.75;100.00;77983.91;4938095;28;20034;-70
2022/12/09 02:27:13;;;;;;;30.77;12.23;;;;;;;-142.75;100.00;77966.19;4937896;28;20059;-70
2022/12/09 02:29:49;;;;;;;32.23;12.60;;;;;;;-142.75;100.00;77964.22;4931517;28;20030;-70
2022/12/09 02:32:52;;;;;;;31.67;12.55;;;;;;;-142.75;100.00;77964.22;4932269;28;20034;-68
2022/12/09 02:35:23;;;;;;;27.30;11.00;;;;;;;-142.75;100.00;77976.03;4934734;28;20018;-71
2022/12/09 02:37:57;;;;;;;33.80;11.60;;;;;;;-142.75;100.00;77970.13;4935719;28;20540;-70
2022/12/09 02:40:29;;;;;;;24.67;10.83;;;;;;;-142.75;100.00;77958.31;4938695;28;20053;-71
2022/12/09 02:42:58;;;;;;;27.93;10.47;;;;;;;-142.75;100.00;77952.41;4934620;28;20033;-71
2022/12/09 02:45:27;;;;;;;30.90;11.83;;;;;;;-142.75;100.00;77956.34;4934655;28;20589;-71
2022/12/09 02:47:54;;;;;;;29.23;12.23;;;;;;;-142.75;100.00;77964.22;4930030;28;20144;-71
2022/12/09 02:50:27;;;;;;;31.60;12.77;;;;;;;-142.75;100.00;77956.34;4938056;28;20026;-71
2022/12/09 02:52:55;;;;;;;35.03;12.40;;;;;;;-142.75;100.00;77960.28;4929051;28;20559;-68
2022/12/09 02:55:22;;;;;;;30.83;12.20;;;;;;;-142.75;100.00;77956.34;4936010;28;20022;-70
2022/12/09 02:57:53;;;;;;;34.30;12.80;;;;;;;-142.75;100.00;77946.50;4930285;28;20021;-69
2022/12/09 03:00:18;;;;;;;32.80;12.63;;;;;;;-142.75;100.00;77958.31;4931205;28;20026;-69
2022/12/09 03:02:50;;;;;;;30.50;12.45;;;;;;;-142.75;100.00;77940.59;4935927;28;20406;-71
2022/12/09 03:05:22;;;;;;;32.80;13.60;;;;;;;-142.75;100.00;77956.34;4935673;28;20025;-70
2022/12/09 03:07:50;;;;;;;32.87;13.37;;;;;;;-142.75;100.00;77952.41;4931097;28;20539;-69
2022/12/09 03:10:29;;;;;;;31.20;12.37;;;;;;;-142.75;100.00;77964.22;4932386;28;20589;-69
2022/12/09 03:13:11;;;;;;;25.80;11.40;;;;;;;-142.75;100.00;77979.97;4925324;28;20052;-70
2022/12/09 03:15:42;;;;;;;30.90;11.27;;;;;;;-142.75;100.00;77989.81;4935485;28;20034;-68
2022/12/09 03:18:14;;;;;;;28.07;11.87;;;;;;;-142.75;100.00;77991.78;4933732;28;20113;-70
2022/12/09 03:20:41;;;;;;;29.40;12.17;;;;;;;-142.75;100.00;77991.78;4932398;28;20542;-69
2022/12/09 03:23:11;;;;;;;28.77;11.50;;;;;;;-142.75;100.00;77962.25;4933601;28;20560;-69
2022/12/09 03:25:47;;;;;;;39.93;13.00;;;;;;;-142.75;100.00;77972.09;4926062;28;20518;-69
2022/12/09 03:28:29;;;;;;;28.45;11.00;;;;;;;-142.75;100.00;77952.41;4929148;28;20030;-71
2022/12/09 03:30:59;;;;;;;27.83;10.60;;;;;;;-142.75;100.00;77966.19;4948420;28;20061;-70
2022/12/09 03:33:26;;;;;;;31.27;12.90;;;;;;;-142.75;100.00;77983.91;4926026;28;20120;-69
2022/12/09 03:35:56;;;;;;;25.97;12.07;;;;;;;-142.75;100.00;77968.16;4940842;28;20056;-69
2022/12/09 03:38:27;;;;;;;29.13;11.73;;;;;;;-142.75;100.00;77954.38;4930312;28;20026;-69
2022/12/09 03:41:40;;;;;;;26.17;12.43;;;;;;;-142.75;100.00;77944.53;4935948;28;20030;-70
2022/12/09 03:44:18;;;;;;;22.57;10.20;;;;;;;-142.75;100.00;77940.59;4905201;28;20633;-68
2022/12/09 03:46:44;;;;;;;23.67;10.73;;;;;;;-142.75;100.00;77940.59;4934421;28;20073;-69
2022/12/09 03:49:10;;;;;;;24.33;10.83;;;;;;;-142.75;100.00;77954.38;4933824;28;20055;-70
2022/12/09 03:51:45;;;;;;;28.38;11.52;;;;;;;-142.75;100.00;77960.28;4933103;28;20104;-70
2022/12/09 03:54:31;;;;;;;22.63;10.73;;;;;;;-142.75;100.00;77964.22;4929035;28;20053;-69
2022/12/09 03:56:58;;;;;;;26.57;10.63;;;;;;;-142.75;100.00;77956.34;4936582;28;20586;-69
2022/12/09 03:59:28;;;;;;;24.70;10.30;;;;;;;-142.75;100.00;77979.97;4930398;28;20045;-71
2022/12/09 04:01:54;;;;;;;24.87;10.77;;;;;;;-142.75;100.00;77960.28;4935821;28;20087;-69
2022/12/09 04:04:20;;;;;;;;;;;;;;;-142.75;100.00;77948.47;4936409;28;20589;-69
2022/12/09 04:06:49;;;;;;;24.40;10.70;;;;;;;-142.75;100.00;77944.53;4933955;28;19913;-70
2022/12/09 04:09:15;;;;;;;24.90;10.87;;;;;;;-142.75;100.00;77932.72;4929940;28;20540;-69
2022/12/09 04:11:40;;;;;;;24.80;10.57;;;;;;;-142.75;100.00;77924.84;4937926;28;20084;-70
2022/12/09 04:14:06;;;;;;;24.10;10.82;;;;;;;-142.75;100.00;77928.78;4931128;28;20184;-70
2022/12/09 04:16:31;;;;;;;21.55;10.52;;;;;;;-142.75;100.00;77918.94;4940903;28;20362;-69
2022/12/09 04:18:57;;;;;;;21.02;11.43;;;;;;;-142.75;100.00;77920.91;4936630;28;20072;-70
2022/12/09 04:21:22;;;;;;;25.17;10.27;;;;;;;-142.75;100.00;77930.75;4939858;28;20386;-70
2022/12/09 04:23:48;;;;;;;23.73;10.73;;;;;;;-142.75;100.00;77920.91;4932199;28;20042;-71
2022/12/09 04:26:19;;;;;;;23.83;11.63;;;;;;;-142.75;100.00;77913.03;4931207;28;20441;-69
2022/12/09 04:28:44;;;;;;;20.37;10.23;;;;;;;-142.75;100.00;77909.06;4929671;28;20030;-69
2022/12/09 04:31:11;;;;;;;22.75;9.88;;;;;;;-142.75;100.00;77909.06;4941881;28;20068;-69
2022/12/09 04:33:37;;;;;;;22.87;9.93;;;;;;;-142.75;100.00;77913.03;4929568;28;20053;-69
2022/12/09 04:36:14;;;;;;;20.70;9.77;;;;;;;-142.75;100.00;77944.53;4933028;28;20029;-68
2022/12/09 04:38:41;;;;;;;22.77;9.77;;;;;;;-142.75;100.00;77944.53;4938314;28;20022;-70
2022/12/09 04:41:07;;;;;;;24.77;10.97;;;;;;;-142.75;100.00;77928.78;4931176;28;20651;-69
2022/12/09 04:43:33;;;;;;;20.17;10.13;;;;;;;-142.75;100.00;77920.91;4932986;28;20707;-69
2022/12/09 04:46:07;;;;;;;19.67;9.77;;;;;;;-142.75;100.00;77901.19;4938882;28;20034;-69
2022/12/09 04:48:33;;;;;;;22.13;10.00;;;;;;;-142.75;100.00;77899.22;4932164;28;20034;-70
2022/12/09 04:50:58;;;;;;;21.42;10.95;;;;;;;-142.75;100.00;77901.19;4944747;28;20327;-69
2022/12/09 04:53:26;;;;;;;19.58;9.93;;;;;;;-142.75;100.00;77915.00;4938556;28;20340;-70
2022/12/09 04:56:03;;;;;;;26.07;10.50;;;;;;;-142.75;100.00;77920.91;4931735;28;20108;-70
2022/12/09 04:58:29;;;;;;;20.33;9.97;;;;;;;-142.75;100.00;77928.78;4944771;28;20580;-70
2022/12/09 05:00:55;;;;;;;24.73;10.85;;;;;;;-142.75;100.00;77952.41;4937503;28;20022;-71
2022/12/09 05:03:20;;;;;;;22.75;10.25;;;;;;;-142.75;100.00;77940.59;4929267;28;20329;-69
2022/12/09 05:05:46;;;;;;;18.52;9.50;;;;;;;-142.75;100.00;77952.41;4940548;28;20018;-70
2022/12/09 05:08:11;;;;;;;20.60;9.38;;;;;;;-142.75;100.00;77952.41;4939449;28;20336;-69
2022/12/09 05:10:37;;;;;;;17.50;8.75;;;;;;;-142.75;100.00;77940.59;4945275;28;20312;-69
2022/12/09 05:13:02;;;;;;;22.65;9.88;;;;;;;-142.75;100.00;77946.50;4926133;28;20383;-70
2022/12/09 05:15:28;;;;;;;17.77;9.55;;;;;;;-142.75;100.00;77950.44;4924989;28;20384;-69
2022/12/09 05:17:54;;;;;;;18.35;9.32;;;;;;;-142.75;100.00;77944.53;4935768;28;20443;-69
2022/12/09 05:20:19;;;;;;;18.05;9.63;;;;;;;-142.75;100.00;77979.97;4929599;28;20325;-69
2022/12/09 05:22:45;;;;;;;22.50;8.95;;;;;;;-142.75;100.00;77968.16;4942638;28;20367;-69
2022/12/09 05:25:10;;;;;;;19.40;9.45;;;;;;;-142.75;100.00;77966.19;4924857;28;20461;-69
2022/12/09 05:27:36;;;;;;;18.40;9.25;;;;;;;-142.75;100.00;77976.03;4934490;28;20318;-69
2022/12/09 05:30:02;;;;;;;17.52;9.10;;;;;;;-142.75;100.00;77968.16;4926061;28;20177;-69
2022/12/09 05:32:29;;;;;;;18.23;8.60;;;;;;;-142.75;100.00;77991.78;4929756;28;20022;-70
2022/12/09 05:34:55;;;;;;;17.90;9.50;;;;;;;-142.75;100.00;77978.00;4930541;28;20026;-69
2022/12/09 05:37:21;;;;;;;18.17;9.27;;;;;;;-142.75;100.00;77991.78;4926129;28;20023;-69
2022/12/09 05:39:47;;;;;;;18.10;9.20;;;;;;;-142.75;100.00;77979.97;4925367;28;20344;-68
2022/12/09 05:42:12;;;;;;;16.42;7.88;;;;;;;-142.75;100.00;78005.56;4925761;28;20332;-70
2022/12/09 05:44:38;;;;;;;18.05;9.18;;;;;;;-142.75;100.00;78019.34;4925629;28;20344;-69
2022/12/09 05:47:03;;;;;;;16.60;7.43;;;;;;;-142.75;100.00;78015.41;4927749;28;20328;-69
2022/12/09 05:49:29;;;;;;;16.27;8.18;;;;;;;-142.75;100.00;78031.16;4937475;28;20170;-70
2022/12/09 05:51:54;;;;;;;16.98;8.57;;;;;;;-142.75;100.00;78035.09;4929538;28;20252;-70
2022/12/09 05:54:20;;;;;;;20.05;9.02;;;;;;;-142.75;100.00;78042.97;4937537;28;20255;-69
2022/12/09 05:56:45;;;;;;;19.15;8.88;;;;;;;-142.75;100.00;78062.69;4937280;28;20327;-70
2022/12/09 05:59:11;;;;;;;17.42;9.02;;;;;;;-142.75;100.00;78048.88;4932939;28;20324;-70
2022/12/09 06:01:36;;;;;;;18.65;7.53;;;;;;;-142.75;100.00;78056.78;4926977;28;20371;-69
2022/12/09 06:04:02;;;;;;;17.02;7.78;;;;;;;-142.75;100.00;78066.63;4932323;28;20323;-70
2022/12/09 06:06:31;;;;;;;15.82;8.20;;;;;;;-142.75;100.00;78039.03;4944453;28;20313;-69
2022/12/09 06:08:58;;;;;;;17.03;8.50;;;;;;;-142.75;100.00;78044.94;4944750;28;20640;-69
2022/12/09 06:11:24;;;;;;;16.27;8.13;;;;;;;-142.75;100.00;78056.78;4940651;28;20053;-70
2022/12/09 06:13:50;;;;;;;16.45;8.30;;;;;;;-142.75;100.00;78044.94;4939750;28;20026;-69
2022/12/09 06:16:18;;;;;;;17.38;7.50;;;;;;;-142.75;100.00;78070.56;4946797;28;20080;-69
2022/12/09 06:18:43;;;;;;;16.77;8.03;;;;;;;-142.75;100.00;78062.69;4930410;28;20547;-69
2022/12/09 06:21:11;;;;;;;22.98;9.50;;;;;;;-142.75;100.00;78042.97;4933389;28;20034;-70
2022/12/09 06:23:39;;;;;;;19.10;8.63;;;;;;;-142.75;100.00;78021.31;4931629;28;20076;-70
2022/12/09 06:26:06;;;;;;;21.70;8.37;;;;;;;-142.75;100.00;78074.50;4928580;28;20038;-70
2022/12/09 06:28:32;;;;;;;14.57;7.13;;;;;;;-142.75;100.00;78094.19;4939052;28;20040;-70
2022/12/09 06:30:59;;;;;;;15.53;7.43;;;;;;;-142.75;100.00;78062.69;4941426;28;20034;-71
2022/12/09 06:33:25;;;;;;;17.73;7.37;;;;;;;-142.75;100.00;78078.44;4942706;28;20030;-70
2022/12/09 06:35:50;;;;;;;18.75;8.20;;;;;;;-142.75;100.00;78078.44;4941169;28;20061;-69
2022/12/09 06:38:16;;;;;;;17.77;8.85;;;;;;;-142.75;100.00;78048.88;4939035;28;20321;-70
2022/12/09 06:40:43;;;;;;;17.58;9.13;;;;;;;-142.75;100.00;78041.00;4935416;28;20336;-68
2022/12/09 06:43:08;;;;;;;17.17;7.70;;;;;;;-142.75;100.00;78044.94;4930053;28;20602;-69
2022/12/09 06:45:35;;;;;;;17.38;8.20;;;;;;;-142.75;100.00;78042.97;4936922;28;20061;-70
2022/12/09 06:48:01;;;;;;;20.83;9.30;;;;;;;-142.75;100.00;78019.34;4939932;28;20164;-70
2022/12/09 06:50:26;;;;;;;20.55;10.23;;;;;;;-142.75;100.00;78017.38;4941210;28;20350;-69
2022/12/09 06:52:52;;;;;;;19.65;9.02;;;;;;;-142.75;100.00;78039.03;4942268;28;20425;-69
2022/12/09 06:55:17;;;;;;;18.08;7.90;;;;;;;-142.75;100.00;78031.16;4930601;28;20427;-70
2022/12/09 06:57:43;;;;;;;16.95;8.10;;;;;;;-142.75;100.00;78086.31;4922468;28;20372;-70
2022/12/09 07:00:09;;;;;;;15.05;8.05;;;;;;;-142.75;100.00;78106.00;4924856;28;20415;-71
2022/12/09 07:02:35;;;;;;;15.93;7.78;;;;;;;-142.75;100.00;78109.94;4942391;28;20473;-68
2022/12/09 07:05:00;;;;;;;16.52;8.00;;;;;;;-142.75;100.00;78106.00;4925749;28;20100;-69
2022/12/09 07:07:26;;;;;;;16.25;8.00;;;;;;;-142.75;100.00;78068.59;4931677;28;20344;-68
2022/12/09 07:09:51;;;;;;;14.10;7.30;;;;;;;-142.75;100.00;78082.38;4933610;28;20434;-71
2022/12/09 07:12:17;;;;;;;17.25;7.60;;;;;;;-142.75;100.00;78123.72;4939632;28;20418;-71
2022/12/09 07:14:42;;;;;;;14.45;7.55;;;;;;;-142.75;100.00;78143.41;4925046;28;20349;-70
2022/12/09 07:17:14;;;;;;;14.90;7.40;;;;;;;-142.75;100.00;78125.69;4933749;28;20458;-71
2022/12/09 07:19:40;;;;;;;17.47;7.40;;;;;;;-142.75;100.00;78098.13;4928917;28;20025;-69
2022/12/09 07:22:05;;;;;;;17.08;8.18;;;;;;;-142.75;100.00;78102.06;4941897;28;20456;-71
2022/12/09 07:24:31;;;;;;;17.40;7.93;;;;;;;-142.75;100.00;78111.91;4935272;28;20327;-70
2022/12/09 07:26:56;;;;;;;17.67;8.93;;;;;;;-142.75;100.00;78090.25;4941599;28;20364;-70
2022/12/09 07:29:22;;;;;;;30.75;13.70;;;;;;;-142.75;100.00;78084.34;4929509;28;20355;-70
2022/12/09 07:31:47;;;;;;;24.15;10.75;;;;;;;-142.75;100.00;78066.63;4936935;28;20332;-71
2022/12/09 07:34:13;;;;;;;19.20;9.43;;;;;;;-142.75;100.00;78070.56;4940500;28;20367;-70
2022/12/09 07:36:39;;;;;;;15.60;7.75;;;;;;;-142.75;100.00;78068.59;4940331;28;20426;-69
2022/12/09 07:39:15;;;;;;;19.08;9.68;;;;;;;-142.75;100.00;78070.56;4923406;28;20554;-69
2022/12/09 07:41:41;;;;;;;14.70;6.63;;;;;;;-142.75;100.00;78078.44;4904772;28;20042;-69
2022/12/09 07:44:07;;;;;;;19.38;9.02;;;;;;;-142.75;100.00;78076.47;4928631;28;20034;-70
2022/12/09 07:46:32;;;;;;;16.35;8.25;;;;;;;-142.75;100.00;78078.44;4926621;28;20049;-69
2022/12/09 07:49:01;;;;;;;18.50;9.82;;;;;;;-142.75;100.00;78106.00;4932772;28;20285;-70
2022/12/09 07:51:28;;;;;;;21.93;10.70;;;;;;;-142.75;100.00;78078.44;4937545;28;20053;-69
2022/12/09 07:53:53;;;;;;;21.60;10.27;;;;;;;-142.75;100.00;78066.63;4943201;28;20080;-71
2022/12/09 07:56:20;;;;;;;18.23;8.68;;;;;;;-142.75;100.00;78080.41;4934849;28;20255;-68
2022/12/09 07:58:46;;;;;;;;;;;;;;;-142.75;100.00;78068.59;4934069;28;20037;-69
2022/12/09 08:01:18;;;;;;;19.40;9.50;;;;;;;-142.75;100.00;78072.53;4940275;28;20671;-67
2022/12/09 08:03:44;;;;;;;18.80;8.93;;;;;;;-142.75;100.00;78106.00;4928368;28;20284;-70
2022/12/09 08:06:15;;;;;;;16.15;8.85;;;;;;;-142.75;100.00;78090.25;4926137;28;20061;-70
2022/12/09 08:08:41;;;;;;;21.43;8.90;;;;;;;-142.75;100.00;78070.56;4936098;28;20208;-65
2022/12/09 08:11:13;;;;;;;18.73;9.37;;;;;;;-142.75;100.00;78009.50;4932843;28;20076;-66
2022/12/09 08:13:40;;;;;;;22.43;10.00;;;;;;;-142.75;100.00;77995.72;4942937;28;20026;-65
2022/12/09 08:16:08;;;;;;;19.53;9.07;;;;;;;-142.75;100.00;77983.91;4926394;28;20040;-65
2022/12/09 08:18:34;;;;;;;25.10;9.00;;;;;;;-142.75;100.00;77968.16;4903824;28;20575;-65
2022/12/09 08:21:02;;;;;;;;;;;;;;;-142.75;100.00;77932.72;4919818;28;20543;-65
2022/12/09 08:23:28;;;;;;;15.60;8.13;;;;;;;-142.75;100.00;77922.88;4940923;28;20434;-65
2022/12/09 08:25:55;;;;;;;17.25;8.75;;;;;;;-142.75;100.00;77873.63;4940729;28;20025;-65
2022/12/09 08:28:24;;;;;;;20.33;9.33;;;;;;;-142.75;100.00;77873.63;4924517;28;20026;-65
2022/12/09 08:30:50;;;;;;;16.70;8.83;;;;;;;-142.75;100.00;77857.88;4926060;28;20127;-63
2022/12/09 08:33:15;;;;;;;19.70;9.10;;;;;;;-142.75;100.00;77846.06;4921231;28;20030;-63
2022/12/09 08:35:42;;;;;;;21.52;7.85;;;;;;;-142.75;100.00;77806.69;4927532;28;20380;-64
2022/12/09 08:38:07;;;;;;;;;;;;;;;-142.75;100.00;77775.19;4937828;28;20035;-65
2022/12/09 08:40:33;;;;;;;16.07;7.63;;;;;;;-142.75;100.00;77731.88;4926363;28;20193;-65
2022/12/09 08:42:58;;;;;;;17.48;10.13;;;;;;;-142.75;100.00;77692.47;4929030;28;20357;-65
2022/12/09 08:45:24;;;;;;;19.35;9.55;;;;;;;-142.75;100.00;77649.16;4942122;28;20084;-65
2022/12/09 08:47:49;;;;;;;20.27;10.00;;;;;;;-142.75;100.00;77619.63;4930556;28;20374;-65
2022/12/09 08:50:15;;;;;;;17.30;9.15;;;;;;;-142.75;100.00;77617.66;4924282;28;20412;-65
2022/12/09 08:52:41;;;;;;;20.52;10.57;;;;;;;-142.75;100.00;77590.09;4930192;28;20434;-65
2022/12/09 08:55:08;;;;;;;17.67;9.65;;;;;;;-142.75;100.00;77594.03;4927039;28;20037;-65
2022/12/09 08:57:34;;;;;;;21.90;9.90;;;;;;;-142.75;100.00;77586.16;4932028;28;20129;-65
2022/12/09 08:59:59;;;;;;;23.30;11.07;;;;;;;-142.75;100.00;77562.53;4937553;28;20386;-65
2022/12/09 09:02:25;;;;;;;20.05;9.68;;;;;;;-142.75;100.00;77562.53;4927059;28;20423;-65
2022/12/09 09:04:51;;;;;;;20.05;9.70;;;;;;;-142.75;100.00;77507.41;4918874;28;20328;-65
2022/12/09 09:07:16;;;;;;;17.23;8.88;;;;;;;-142.75;100.00;77477.88;4950931;28;20026;-65
2022/12/09 09:09:41;;;;;;;20.60;9.98;;;;;;;-142.75;100.00;77542.84;4982261;28;20089;-67
2022/12/09 09:12:07;;;;;;;19.00;9.88;;;;;;;-142.75;100.00;77586.16;4973623;28;20026;-66
2022/12/09 09:14:32;;;;;;;18.70;9.70;;;;;;;-142.75;100.00;77613.72;4981856;28;20026;-66
2022/12/09 09:16:58;;;;;;;19.70;9.77;;;;;;;-142.75;100.00;77586.16;4981618;28;20565;-66
2022/12/09 09:19:24;;;;;;;21.77;10.65;;;;;;;-142.75;100.00;77515.28;4979714;28;20038;-66
2022/12/09 09:21:51;;;;;;;21.77;11.30;;;;;;;-142.75;100.00;77527.09;4975839;28;20045;-65
2022/12/09 09:24:19;;;;;;;24.83;10.83;;;;;;;-142.75;100.00;77471.97;4981345;28;20097;-64
2022/12/09 09:26:46;;;;;;;30.97;13.57;;;;;;;-142.75;100.00;77487.72;4982449;28;20028;-66
2022/12/09 09:29:13;;;;;;;28.50;13.13;;;;;;;-142.75;100.00;77523.16;4983305;28;20109;-66
2022/12/09 09:31:39;;;;;;;28.40;13.70;;;;;;;-142.75;100.00;77509.38;4983565;28;20393;-66
2022/12/09 09:34:05;;;;;;;30.77;14.68;;;;;;;-142.75;100.00;77458.16;4973352;28;20058;-64
2022/12/09 09:36:31;;;;;;;26.87;13.87;;;;;;;-142.75;100.00;77436.50;4981564;28;20018;-65
2022/12/09 09:38:57;;;;;;;25.77;13.07;;;;;;;-142.75;100.00;77436.50;4981430;28;20046;-65
2022/12/09 09:41:44;;;;;;;28.58;12.70;;;;;;;-142.75;100.00;77363.66;4974955;28;20288;-65
2022/12/09 09:44:39;;;;;;;23.33;12.52;;;;;;;-142.75;100.00;77342.00;4974159;28;20030;-66
2022/12/09 09:47:16;;;;;;;30.33;13.97;;;;;;;-142.75;100.00;77308.53;4972729;28;20045;-66
2022/12/09 09:49:48;;;;;;;29.10;13.27;;;;;;;-142.75;100.00;77343.97;4982317;28;20061;-66
2022/12/09 09:52:19;;;;;;;28.43;13.43;;;;;;;-142.75;100.00;77355.78;4982473;28;20026;-66
2022/12/09 09:54:45;;;;;;;30.87;14.17;;;;;;;-142.75;100.00;77347.91;4983427;28;20034;-66
2022/12/09 09:57:10;;;;;;;29.27;14.07;;;;;;;-142.75;100.00;77326.25;4982554;28;20037;-64
2022/12/09 09:59:43;;;;;;;30.63;14.55;;;;;;;-142.75;100.00;77314.44;4982901;28;20030;-65
2022/12/09 10:02:14;;;;;;;28.57;14.67;;;;;;;-142.75;100.00;77300.66;4980852;28;20065;-68
2022/12/09 10:04:56;;;;;;;29.30;14.27;;;;;;;-142.75;100.00;77290.81;4983226;28;20038;-65
2022/12/09 10:07:29;;;;;;;29.03;14.77;;;;;;;-142.75;100.00;77302.63;4980837;28;20034;-63
2022/12/09 10:10:16;;;;;;;29.53;15.13;;;;;;;-142.75;100.00;77243.56;4983432;28;20387;-66
2022/12/09 10:12:44;;;;;;;;;;;;;;;-142.75;100.00;77251.44;4982352;28;20049;-67
2022/12/09 10:15:21;;;;;;;27.27;13.60;;;;;;;-142.75;100.00;77271.13;4982226;28;20400;-66
2022/12/09 10:18:05;;;;;;;29.03;13.97;;;;;;;-142.75;100.00;77227.81;4981959;28;20050;-67
2022/12/09 10:20:31;;;;;;;31.88;15.23;;;;;;;-142.75;100.00;77180.56;4980712;28;20093;-65
2022/12/09 10:23:01;;;;;;;;;;;;;;;-142.75;100.00;77121.50;4983052;28;20028;-67
2022/12/09 10:25:33;;;;;;;31.92;14.73;;;;;;;-142.75;100.00;77117.56;4982285;28;19918;-67
2022/12/09 10:28:20;;;;;;;31.27;15.13;;;;;;;-142.75;100.00;77072.28;4981856;28;20069;-68
2022/12/09 10:30:49;;;;;;;29.70;14.02;;;;;;;-142.75;100.00;77168.75;4982651;28;20034;-66
2022/12/09 10:33:17;;;;;;;30.30;14.50;;;;;;;-142.75;100.00;77162.84;4982452;28;20439;-67
2022/12/09 10:35:43;;;;;;;32.70;15.07;;;;;;;-142.75;100.00;77149.06;4980874;28;20137;-66
2022/12/09 10:38:15;;;;;;;27.20;13.75;;;;;;;-142.75;100.00;77154.97;4981329;28;20038;-66
2022/12/09 10:40:53;;;;;;;31.02;14.93;;;;;;;-142.75;100.00;77156.94;4982240;28;20057;-67
2022/12/09 10:46:07;;;;;;;30.25;13.95;;;;;;;-142.75;100.00;77107.72;4981891;28;20789;-67
2022/12/09 10:48:36;;;;;;;26.70;13.43;;;;;;;-142.75;100.00;77113.63;4980815;28;20026;-66
2022/12/09 10:51:05;;;;;;;27.48;13.57;;;;;;;-142.75;100.00;77080.16;4981974;28;20113;-67
2022/12/09 10:53:33;;;;;;;28.05;13.77;;;;;;;-142.75;100.00;76987.63;4981813;28;20507;-67
2022/12/09 10:56:00;;;;;;;28.02;13.52;;;;;;;-142.75;100.00;77038.81;4981862;28;20042;-68
2022/12/09 10:58:28;;;;;;;25.73;13.20;;;;;;;-142.75;100.00;77127.41;4988346;28;20837;-67
2022/12/09 11:01:09;;;;;;;30.45;13.23;;;;;;;-142.75;100.00;77135.28;4985744;28;20041;-65
2022/12/09 11:03:49;;;;;;;27.08;12.98;;;;;;;-142.75;100.00;77137.25;4981812;28;20057;-67
2022/12/09 11:06:20;;;;;;;25.45;12.70;;;;;;;-142.75;100.00;77186.47;4980983;28;20034;-65
2022/12/09 11:08:52;;;;;;;26.27;13.20;;;;;;;-142.75;100.00;77208.13;4981286;28;20142;-67